Time;durP1;ratioP1;P1;durP2;ratioP2;P2;SDS_P1;SDS_P2;PMS_P1;PMS_P2;Temp;Humidity;BMP_temperature;BMP_pressure;BME280_temperature;BME280_humidity;BME280_pressure;Samples;Min_cycle;Max_cycle;Signal;HPM_P1;HPM_P2
2023/10/15 00:02:03;;;;;;;6.97;2.20;;;;;;;;;;4964481;28;20218;-73
2023/10/15 00:04:31;;;;;;;4.20;1.83;;;;;;;;;;4964329;28;20226;-73
2023/10/15 00:07:05;;;;;;;5.37;2.13;;;;;;;;;;4948795;28;20249;-73
2023/10/15 00:09:34;;;;;;;6.33;2.17;;;;;;;;;;4909360;29;20226;-72
2023/10/15 00:12:03;;;;;;;5.27;1.47;;;;;;;;;;4923987;29;20230;-73
2023/10/15 00:14:28;;;;;;;4.37;1.60;;;;;;;;;;4948711;28;20234;-72
2023/10/15 00:16:54;;;;;;;3.03;1.70;;;;;;;;;;4932428;29;20564;-73
2023/10/15 00:19:19;;;;;;;5.47;1.57;;;;;;;;;;4948025;28;20591;-73
2023/10/15 00:21:47;;;;;;;6.57;1.63;;;;;;;;;;4963773;28;20231;-73
2023/10/15 00:24:16;;;;;;;5.87;1.80;;;;;;;;;;4947491;28;20219;-72
2023/10/15 00:26:44;;;;;;;6.57;1.70;;;;;;;;;;4934324;29;20231;-73
2023/10/15 00:29:10;;;;;;;3.87;1.57;;;;;;;;;;4967931;28;20214;-73
2023/10/15 00:31:38;;;;;;;6.63;2.10;;;;;;;;;;4935451;29;20779;-73
2023/10/15 00:34:12;;;;;;;3.33;1.70;;;;;;;;;;4941409;28;20215;-73
2023/10/15 00:36:40;;;;;;;4.57;1.83;;;;;;;;;;4937215;28;20261;-73
2023/10/15 00:39:12;;;;;;;2.80;1.33;;;;;;;;;;4924073;28;20591;-73
2023/10/15 00:41:40;;;;;;;4.70;1.60;;;;;;;;;;4966562;28;20701;-73
2023/10/15 00:44:09;;;;;;;7.23;1.70;;;;;;;;;;4940930;28;20227;-74
2023/10/15 00:46:37;;;;;;;4.67;1.80;;;;;;;;;;4966513;28;20234;-73
2023/10/15 00:49:09;;;;;;;5.87;2.17;;;;;;;;;;4951643;28;20290;-72
2023/10/15 00:51:41;;;;;;;6.57;1.67;;;;;;;;;;4950296;28;20996;-73
2023/10/15 00:54:11;;;;;;;6.57;1.70;;;;;;;;;;4927364;28;20242;-73
2023/10/15 00:56:36;;;;;;;4.03;1.70;;;;;;;;;;4950831;28;20222;-73
2023/10/15 00:59:08;;;;;;;6.37;1.50;;;;;;;;;;4951787;28;20219;-73
2023/10/15 01:01:34;;;;;;;5.23;1.60;;;;;;;;;;4944065;28;20310;-73
2023/10/15 01:04:09;;;;;;;3.43;1.70;;;;;;;;;;4920036;29;20361;-74
2023/10/15 01:06:35;;;;;;;4.53;1.43;;;;;;;;;;4950501;28;20230;-73
2023/10/15 01:09:10;;;;;;;4.30;1.60;;;;;;;;;;4952234;28;20310;-73
2023/10/15 01:11:51;;;;;;;7.93;1.67;;;;;;;;;;4951679;28;20641;-73
2023/10/15 01:14:31;;;;;;;7.27;1.73;;;;;;;;;;4966472;28;20222;-73
2023/10/15 01:16:56;;;;;;;4.40;1.80;;;;;;;;;;4954301;28;20231;-72
2023/10/15 01:19:35;;;;;;;4.93;1.80;;;;;;;;;;4936329;28;20226;-73
2023/10/15 01:22:08;;;;;;;3.93;1.70;;;;;;;;;;4915729;28;20229;-73
2023/10/15 01:24:38;;;;;;;5.20;1.80;;;;;;;;;;4968057;28;20234;-74
2023/10/15 01:29:36;;;;;;;7.83;1.90;;;;;;;;;;4935523;28;20241;-73
2023/10/15 01:32:13;;;;;;;8.83;2.10;;;;;;;;;;4934296;28;20309;-73
2023/10/15 01:34:44;;;;;;;8.17;2.60;;;;;;;;;;4950594;28;20241;-73
2023/10/15 01:39:46;;;;;;;7.97;2.27;;;;;;;;;;4949987;28;20227;-73
2023/10/15 01:42:31;;;;;;;7.70;2.43;;;;;;;;;;4950352;28;20242;-73
2023/10/15 01:47:36;;;;;;;7.67;2.43;;;;;;;;;;4950999;28;20247;-74
2023/10/15 01:50:15;;;;;;;7.10;2.10;;;;;;;;;;4950043;28;20223;-73
2023/10/15 01:52:44;;;;;;;6.53;2.10;;;;;;;;;;4950834;28;20808;-72
2023/10/15 01:55:09;;;;;;;4.83;1.90;;;;;;;;;;4947013;28;20604;-72
2023/10/15 01:57:40;;;;;;;8.40;2.13;;;;;;;;;;4965100;28;20286;-73
2023/10/15 02:00:33;;;;;;;10.87;2.37;;;;;;;;;;4949344;28;20723;-73
2023/10/15 02:03:01;;;;;;;5.93;2.20;;;;;;;;;;4949484;28;20222;-73
2023/10/15 02:05:41;;;;;;;6.53;2.23;;;;;;;;;;4933311;28;20226;-73
2023/10/15 02:08:12;;;;;;;6.73;2.10;;;;;;;;;;4950873;28;20226;-73
2023/10/15 02:10:40;;;;;;;7.07;1.87;;;;;;;;;;4949917;28;20852;-73
2023/10/15 02:13:11;;;;;;;6.43;2.03;;;;;;;;;;4949102;28;20213;-73
2023/10/15 02:15:42;;;;;;;10.33;2.07;;;;;;;;;;4966219;28;20317;-73
2023/10/15 02:18:08;;;;;;;6.30;2.23;;;;;;;;;;4943158;28;20230;-73
2023/10/15 02:23:18;;;;;;;8.70;2.30;;;;;;;;;;4950659;28;20743;-73
2023/10/15 02:25:56;;;;;;;10.07;2.30;;;;;;;;;;4933594;28;20622;-72
2023/10/15 02:28:25;;;;;;;6.03;2.17;;;;;;;;;;4947724;28;20808;-73
2023/10/15 02:33:42;;;;;;;6.93;2.00;;;;;;;;;;4948544;28;20227;-73
2023/10/15 02:36:15;;;;;;;8.00;2.53;;;;;;;;;;4947612;28;20245;-72
2023/10/15 02:38:52;;;;;;;11.00;2.23;;;;;;;;;;4941970;28;20313;-73
2023/10/15 02:41:21;;;;;;;4.83;1.70;;;;;;;;;;4946825;28;20839;-73
2023/10/15 02:43:53;;;;;;;6.07;1.87;;;;;;;;;;4947994;28;20230;-72
2023/10/15 02:46:36;;;;;;;10.00;2.20;;;;;;;;;;4925356;28;20255;-73
2023/10/15 02:49:03;;;;;;;7.17;2.17;;;;;;;;;;4928396;28;20234;-73
2023/10/15 02:51:35;;;;;;;4.77;2.00;;;;;;;;;;4934168;29;20306;-73
2023/10/15 02:54:18;;;;;;;10.03;2.40;;;;;;;;;;4965153;28;20215;-73
2023/10/15 02:56:46;;;;;;;6.90;1.83;;;;;;;;;;4943541;28;20836;-73
2023/10/15 02:59:16;;;;;;;7.10;2.43;;;;;;;;;;4945777;28;20221;-73
2023/10/15 03:01:46;;;;;;;7.10;1.67;;;;;;;;;;4940447;28;20218;-73
2023/10/15 03:04:11;;;;;;;4.63;2.13;;;;;;;;;;4947236;28;20215;-73
2023/10/15 03:06:41;;;;;;;5.23;1.83;;;;;;;;;;4949418;28;20738;-73
2023/10/15 03:09:12;;;;;;;5.60;1.60;;;;;;;;;;4947131;28;20223;-73
2023/10/15 03:11:50;;;;;;;9.47;1.60;;;;;;;;;;4949334;28;20241;-73
2023/10/15 03:14:18;;;;;;;3.77;1.40;;;;;;;;;;4933546;28;20953;-73
2023/10/15 03:16:45;;;;;;;7.27;1.90;;;;;;;;;;4942648;28;20223;-73
2023/10/15 03:19:23;;;;;;;4.43;1.83;;;;;;;;;;4948425;28;20602;-73
2023/10/15 03:21:57;;;;;;;3.67;1.50;;;;;;;;;;4951163;28;20633;-73
2023/10/15 03:24:23;;;;;;;5.77;1.90;;;;;;;;;;4933654;28;21406;-73
2023/10/15 03:26:48;;;;;;;4.83;1.50;;;;;;;;;;4949210;28;20297;-73
2023/10/15 03:29:14;;;;;;;3.30;1.70;;;;;;;;;;4947825;28;20219;-73
2023/10/15 03:31:46;;;;;;;3.53;1.53;;;;;;;;;;4933643;28;20807;-74
2023/10/15 03:42:17;;;;;;;3.13;1.50;;;;;;;;;;4932855;29;20218;-73
2023/10/15 03:44:49;;;;;;;3.70;1.60;;;;;;;;;;4947746;28;20249;-73
2023/10/15 03:47:16;;;;;;;6.50;1.43;;;;;;;;;;4948190;28;20245;-73
2023/10/15 03:49:46;;;;;;;4.83;1.60;;;;;;;;;;4946197;28;20230;-73
2023/10/15 03:52:14;;;;;;;5.40;1.83;;;;;;;;;;4944945;28;20608;-73
2023/10/15 03:54:42;;;;;;;5.23;1.53;;;;;;;;;;4948172;28;20250;-72
2023/10/15 03:57:08;;;;;;;5.17;1.47;;;;;;;;;;4929919;28;20337;-73
2023/10/15 04:03:37;;;;;;;6.93;1.93;;;;;;;;;;4952745;28;20598;-72
2023/10/15 04:06:05;;;;;;;4.73;1.53;;;;;;;;;;4967137;28;20240;-73
2023/10/15 04:08:33;;;;;;;5.27;1.57;;;;;;;;;;4944460;28;20226;-72
2023/10/15 04:11:00;;;;;;;3.40;1.50;;;;;;;;;;4968204;28;20219;-73
2023/10/15 04:13:28;;;;;;;6.90;2.00;;;;;;;;;;4967431;28;20218;-73
2023/10/15 04:15:58;;;;;;;3.63;1.80;;;;;;;;;;4952278;28;20226;-73
2023/10/15 04:18:26;;;;;;;4.80;1.50;;;;;;;;;;4936032;28;20239;-74
2023/10/15 04:20:56;;;;;;;6.43;1.90;;;;;;;;;;4952059;28;20237;-73
2023/10/15 04:23:30;;;;;;;3.50;1.43;;;;;;;;;;4967208;28;20222;-74
2023/10/15 04:26:00;;;;;;;2.73;1.37;;;;;;;;;;4951479;28;20258;-73
2023/10/15 04:28:27;;;;;;;1.93;1.07;;;;;;;;;;4966363;28;20227;-74
2023/10/15 04:30:56;;;;;;;2.60;1.30;;;;;;;;;;4951575;28;20235;-73
2023/10/15 04:33:25;;;;;;;5.17;1.73;;;;;;;;;;4935734;28;20262;-73
2023/10/15 04:35:56;;;;;;;2.20;1.40;;;;;;;;;;4964936;28;20240;-73
2023/10/15 04:38:28;;;;;;;3.77;1.40;;;;;;;;;;4945846;28;20223;-73
2023/10/15 04:43:27;;;;;;;3.33;1.37;;;;;;;;;;4943592;28;20304;-74
2023/10/15 04:45:56;;;;;;;5.70;1.40;;;;;;;;;;4949941;28;20241;-73
2023/10/15 04:48:32;;;;;;;3.67;1.47;;;;;;;;;;4950789;28;20223;-73
2023/10/15 04:51:13;;;;;;;3.80;1.30;;;;;;;;;;4949745;28;20227;-74
2023/10/15 04:53:44;;;;;;;3.53;1.30;;;;;;;;;;4951516;28;20215;-73
2023/10/15 04:56:10;;;;;;;2.47;1.37;;;;;;;;;;4964834;28;20250;-73
2023/10/15 04:58:41;;;;;;;3.30;1.50;;;;;;;;;;4952281;28;20223;-73
2023/10/15 05:01:07;;;;;;;5.70;1.40;;;;;;;;;;4951383;28;20230;-73
2023/10/15 05:03:38;;;;;;;5.17;1.60;;;;;;;;;;4969327;28;20219;-74
2023/10/15 05:06:06;;;;;;;6.07;2.47;;;;;;;;;;4951156;28;20231;-74
2023/10/15 05:08:32;;;;;;;6.13;1.57;;;;;;;;;;4951650;28;20219;-73
2023/10/15 05:10:58;;;;;;;4.07;1.50;;;;;;;;;;4967474;28;20329;-73
2023/10/15 05:13:24;;;;;;;4.53;2.13;;;;;;;;;;4968471;28;20255;-74
2023/10/15 05:15:52;;;;;;;8.10;5.30;;;;;;;;;;4920228;29;20231;-74
2023/10/15 05:18:20;;;;;;;7.53;5.27;;;;;;;;;;4951403;28;20226;-74
2023/10/15 05:20:49;;;;;;;5.50;3.57;;;;;;;;;;4950891;28;20269;-72
2023/10/15 05:23:20;;;;;;;4.77;1.93;;;;;;;;;;4950582;28;20319;-73
2023/10/15 05:25:52;;;;;;;3.03;1.60;;;;;;;;;;4950629;28;20265;-73
2023/10/15 05:28:21;;;;;;;2.70;1.00;;;;;;;;;;4933123;28;20255;-75
2023/10/15 05:30:52;;;;;;;4.40;1.67;;;;;;;;;;4935239;28;20230;-74
2023/10/15 05:33:20;;;;;;;3.00;1.47;;;;;;;;;;4934323;28;20596;-73
2023/10/15 05:35:49;;;;;;;3.77;1.33;;;;;;;;;;4966761;28;20239;-73
2023/10/15 05:38:16;;;;;;;3.80;1.50;;;;;;;;;;4923860;28;20732;-73
2023/10/15 05:40:44;;;;;;;1.10;1.00;;;;;;;;;;4936379;28;20633;-73
2023/10/15 05:43:14;;;;;;;2.73;0.87;;;;;;;;;;4948468;28;20231;-73
2023/10/15 05:45:40;;;;;;;1.13;0.73;;;;;;;;;;4945884;28;20219;-73
2023/10/15 05:48:07;;;;;;;3.87;1.43;;;;;;;;;;4927088;28;20231;-74
2023/10/15 05:50:32;;;;;;;2.23;1.13;;;;;;;;;;4947074;28;20226;-74
2023/10/15 05:53:00;;;;;;;4.47;1.10;;;;;;;;;;4949879;28;20269;-73
2023/10/15 05:55:29;;;;;;;2.70;1.27;;;;;;;;;;4941635;28;20242;-74
2023/10/15 06:00:43;;;;;;;1.83;1.50;;;;;;;;;;5004801;28;20261;-81
2023/10/15 06:03:08;;;;;;;2.40;1.20;;;;;;;;;;4977487;28;20264;-79
2023/10/15 06:05:34;;;;;;;1.97;1.17;;;;;;;;;;4985851;28;20226;-80
2023/10/15 06:08:04;;;;;;;2.20;1.20;;;;;;;;;;4966931;28;20228;-82
2023/10/15 06:10:34;;;;;;;5.27;1.30;;;;;;;;;;4971332;28;20210;-81
2023/10/15 06:13:04;;;;;;;1.93;1.23;;;;;;;;;;4976452;28;20308;-81
2023/10/15 06:15:32;;;;;;;3.63;1.03;;;;;;;;;;4971232;28;20584;-81
2023/10/15 06:18:00;;;;;;;3.77;1.10;;;;;;;;;;4966967;28;20569;-81
2023/10/15 06:20:25;;;;;;;1.07;0.77;;;;;;;;;;4961475;28;20221;-82
2023/10/15 06:22:55;;;;;;;2.23;1.10;;;;;;;;;;4946808;28;20301;-82
2023/10/15 06:25:24;;;;;;;2.93;0.97;;;;;;;;;;4983857;28;21044;-82
2023/10/15 06:27:50;;;;;;;1.57;0.83;;;;;;;;;;4962423;28;20226;-82
2023/10/15 06:30:16;;;;;;;2.63;1.20;;;;;;;;;;4968727;28;20232;-80
2023/10/15 06:32:43;;;;;;;1.97;0.80;;;;;;;;;;4950281;28;20218;-82
2023/10/15 06:35:18;;;;;;;4.83;1.20;;;;;;;;;;4969300;28;20236;-81
2023/10/15 06:37:47;;;;;;;1.63;0.90;;;;;;;;;;4976056;28;20232;-79
2023/10/15 06:40:13;;;;;;;1.90;0.80;;;;;;;;;;4967633;28;20230;-82
2023/10/15 06:42:39;;;;;;;1.60;0.80;;;;;;;;;;4959996;28;20660;-82
2023/10/15 06:45:08;;;;;;;0.93;0.80;;;;;;;;;;4964204;28;20421;-80
2023/10/15 06:47:35;;;;;;;3.00;0.90;;;;;;;;;;4972361;28;20222;-82
2023/10/15 06:50:09;;;;;;;2.03;0.90;;;;;;;;;;4954021;28;20287;-83
2023/10/15 06:52:38;;;;;;;1.57;1.10;;;;;;;;;;4968757;28;20249;-79
2023/10/15 06:55:05;;;;;;;1.00;0.83;;;;;;;;;;4984294;28;20233;-79
2023/10/15 06:57:32;;;;;;;1.87;1.00;;;;;;;;;;4972959;28;20229;-79
2023/10/15 06:59:58;;;;;;;1.87;1.00;;;;;;;;;;4979888;28;20221;-80
2023/10/15 07:02:23;;;;;;;2.43;1.20;;;;;;;;;;4984614;28;20233;-79
2023/10/15 07:04:51;;;;;;;3.10;1.20;;;;;;;;;;4974713;28;20286;-81
2023/10/15 07:07:16;;;;;;;2.07;1.13;;;;;;;;;;4966989;28;20228;-81
2023/10/15 07:09:42;;;;;;;2.50;1.13;;;;;;;;;;4972566;28;20234;-81
2023/10/15 07:12:08;;;;;;;1.93;1.40;;;;;;;;;;4985601;28;20209;-81
2023/10/15 07:14:37;;;;;;;3.43;1.20;;;;;;;;;;4962795;28;20232;-79
2023/10/15 07:17:03;;;;;;;1.40;0.83;;;;;;;;;;4947962;28;20651;-81
2023/10/15 07:19:29;;;;;;;3.63;1.30;;;;;;;;;;4964634;28;20213;-78
2023/10/15 07:21:55;;;;;;;2.17;1.10;;;;;;;;;;4981851;28;20229;-79
2023/10/15 07:24:22;;;;;;;1.73;1.03;;;;;;;;;;4970747;28;20229;-82
2023/10/15 07:26:48;;;;;;;2.40;1.13;;;;;;;;;;4965264;28;20470;-82
2023/10/15 07:29:18;;;;;;;1.17;0.73;;;;;;;;;;4961844;28;20225;-80
2023/10/15 07:31:46;;;;;;;4.10;1.10;;;;;;;;;;4984145;28;20647;-81
2023/10/15 07:34:12;;;;;;;2.27;1.13;;;;;;;;;;4926646;28;20308;-81
2023/10/15 07:36:38;;;;;;;1.37;1.00;;;;;;;;;;4974540;28;20687;-81
2023/10/15 07:39:06;;;;;;;2.87;1.00;;;;;;;;;;4969485;28;20226;-81
2023/10/15 07:41:35;;;;;;;1.10;0.80;;;;;;;;;;4972097;28;20299;-82
2023/10/15 07:44:03;;;;;;;2.03;1.10;;;;;;;;;;4964895;28;20255;-80
2023/10/15 07:46:34;;;;;;;3.93;1.10;;;;;;;;;;4967787;28;20221;-82
2023/10/15 07:49:00;;;;;;;1.77;0.77;;;;;;;;;;4965076;28;20229;-78
2023/10/15 07:51:27;;;;;;;2.03;0.93;;;;;;;;;;4962058;28;20245;-80
2023/10/15 07:53:55;;;;;;;2.23;1.40;;;;;;;;;;4947992;28;20309;-80
2023/10/15 07:56:21;;;;;;;5.17;1.10;;;;;;;;;;4942399;28;20244;-79
2023/10/15 07:58:50;;;;;;;2.23;0.83;;;;;;;;;;4941248;28;20237;-79
2023/10/15 08:01:16;;;;;;;1.53;0.90;;;;;;;;;;4973883;28;20230;-80
2023/10/15 08:03:44;;;;;;;1.23;0.90;;;;;;;;;;4957742;28;20296;-80
2023/10/15 08:06:10;;;;;;;1.70;0.70;;;;;;;;;;4926279;28;20233;-79
2023/10/15 08:08:43;;;;;;;0.87;0.70;;;;;;;;;;4976929;28;20353;-78
2023/10/15 08:11:11;;;;;;;1.70;0.87;;;;;;;;;;4970685;28;20378;-80
2023/10/15 08:13:37;;;;;;;1.37;0.90;;;;;;;;;;4956828;28;20220;-78
2023/10/15 08:16:04;;;;;;;1.60;0.70;;;;;;;;;;4941885;28;20223;-80
2023/10/15 08:18:30;;;;;;;1.93;0.83;;;;;;;;;;4940240;28;20237;-78
2023/10/15 08:20:56;;;;;;;1.97;0.90;;;;;;;;;;4974195;28;20221;-79
2023/10/15 08:23:21;;;;;;;1.30;0.97;;;;;;;;;;4940775;28;20239;-78
2023/10/15 08:25:48;;;;;;;1.83;0.90;;;;;;;;;;4946691;28;20233;-81
2023/10/15 08:28:14;;;;;;;1.90;0.87;;;;;;;;;;4963657;28;20927;-81
2023/10/15 08:30:42;;;;;;;0.80;0.70;;;;;;;;;;4929314;28;20240;-78
2023/10/15 08:33:12;;;;;;;1.07;0.90;;;;;;;;;;4935943;28;20236;-80
2023/10/15 08:35:37;;;;;;;1.17;0.70;;;;;;;;;;4960826;28;20374;-78
2023/10/15 08:38:05;;;;;;;2.13;1.10;;;;;;;;;;4937199;28;20679;-79
2023/10/15 08:40:39;;;;;;;1.40;0.90;;;;;;;;;;4955355;28;20826;-80
2023/10/15 08:43:05;;;;;;;1.53;0.90;;;;;;;;;;4940247;28;20226;-80
2023/10/15 08:45:31;;;;;;;1.67;0.67;;;;;;;;;;4970275;28;20233;-82
2023/10/15 08:47:56;;;;;;;2.87;0.93;;;;;;;;;;4955819;28;20308;-80
2023/10/15 08:50:24;;;;;;;2.97;1.20;;;;;;;;;;4929682;28;20253;-79
2023/10/15 08:52:52;;;;;;;1.10;0.70;;;;;;;;;;4967551;28;20214;-80
2023/10/15 08:55:22;;;;;;;0.60;0.60;;;;;;;;;;4979484;28;20222;-81
2023/10/15 08:57:56;;;;;;;1.33;0.70;;;;;;;;;;4926523;28;20599;-80
2023/10/15 09:00:27;;;;;;;0.97;0.77;;;;;;;;;;4945114;28;20897;-80
2023/10/15 09:02:56;;;;;;;1.97;1.03;;;;;;;;;;4958775;28;20237;-79
2023/10/15 09:05:22;;;;;;;1.30;0.80;;;;;;;;;;4965035;28;20227;-77
2023/10/15 09:07:56;;;;;;;1.40;0.73;;;;;;;;;;4962832;28;20240;-79
2023/10/15 09:10:25;;;;;;;1.50;0.90;;;;;;;;;;4964580;28;20229;-82
2023/10/15 09:12:50;;;;;;;0.70;0.70;;;;;;;;;;4961548;28;20230;-82
2023/10/15 09:15:16;;;;;;;0.70;0.70;;;;;;;;;;4969014;28;20319;-82
2023/10/15 09:17:49;;;;;;;3.33;1.80;;;;;;;;;;4964762;28;20209;-80
2023/10/15 09:20:25;;;;;;;0.73;0.60;;;;;;;;;;4954575;28;20284;-81
2023/10/15 09:22:57;;;;;;;1.03;0.70;;;;;;;;;;4972199;28;20218;-82
2023/10/15 09:25:24;;;;;;;0.90;0.60;;;;;;;;;;4948907;28;22551;-82
2023/10/15 09:27:55;;;;;;;0.73;0.50;;;;;;;;;;4966257;28;20230;-82
2023/10/15 09:30:27;;;;;;;1.60;1.00;;;;;;;;;;4980872;28;20226;-82
2023/10/15 09:32:54;;;;;;;0.83;0.80;;;;;;;;;;4955537;28;20241;-80
2023/10/15 09:35:20;;;;;;;1.27;0.63;;;;;;;;;;4945292;28;20218;-83
2023/10/15 09:37:46;;;;;;;0.87;0.57;;;;;;;;;;4956362;28;20222;-82
2023/10/15 09:40:24;;;;;;;0.70;0.60;;;;;;;;;;4935179;28;20226;-81
2023/10/15 09:42:55;;;;;;;1.50;0.80;;;;;;;;;;4949879;28;20225;-79
2023/10/15 09:45:25;;;;;;;0.77;0.70;;;;;;;;;;4945134;28;20241;-80
2023/10/15 09:48:02;;;;;;;1.40;0.80;;;;;;;;;;4949496;28;20697;-81
2023/10/15 09:50:31;;;;;;;0.70;0.63;;;;;;;;;;4933027;28;20225;-83
2023/10/15 09:53:00;;;;;;;1.30;0.57;;;;;;;;;;4944882;28;20604;-80
2023/10/15 09:55:27;;;;;;;2.20;0.50;;;;;;;;;;4955524;28;20226;-82
2023/10/15 09:58:01;;;;;;;0.93;0.57;;;;;;;;;;4941372;28;20299;-79
2023/10/15 10:03:48;;;;;;;0.60;0.50;;;;;;;;;;4951481;28;20227;-79
2023/10/15 10:06:38;;;;;;;1.57;0.50;;;;;;;;;;4981540;28;20232;-80
2023/10/15 10:09:24;;;;;;;0.70;0.70;;;;;;;;;;4976362;28;20226;-82
2023/10/15 10:12:17;;;;;;;1.57;0.83;;;;;;;;;;4954430;28;20221;-83
2023/10/15 10:15:15;;;;;;;0.80;0.50;;;;;;;;;;4958507;28;20684;-81
2023/10/15 10:17:43;;;;;;;0.70;0.57;;;;;;;;;;4973485;28;20223;-82
2023/10/15 10:20:12;;;;;;;0.87;0.53;;;;;;;;;;4937157;28;20230;-82
2023/10/15 10:22:38;;;;;;;1.07;0.70;;;;;;;;;;4949720;28;20230;-82
2023/10/15 10:25:04;;;;;;;1.53;0.70;;;;;;;;;;4942927;28;20253;-82
2023/10/15 10:27:40;;;;;;;0.63;0.60;;;;;;;;;;4931852;28;20234;-82
2023/10/15 10:30:27;;;;;;;0.63;0.63;;;;;;;;;;4942190;28;20226;-81
2023/10/15 10:32:56;;;;;;;0.67;0.67;;;;;;;;;;4951092;28;20319;-81
2023/10/15 10:35:26;;;;;;;1.40;0.90;;;;;;;;;;4956868;28;20234;-81
2023/10/15 10:38:10;;;;;;;2.10;1.00;;;;;;;;;;4950086;28;20718;-82
2023/10/15 10:40:56;;;;;;;1.50;1.00;;;;;;;;;;4956708;28;20706;-80
2023/10/15 10:43:24;;;;;;;4.57;0.97;;;;;;;;;;4921280;28;20221;-81
2023/10/15 10:46:00;;;;;;;3.67;3.27;;;;;;;;;;4940248;28;20214;-81
2023/10/15 10:48:29;;;;;;;2.33;1.90;;;;;;;;;;4948105;28;20230;-80
2023/10/15 10:51:23;;;;;;;2.77;1.10;;;;;;;;;;4935393;28;20226;-80
2023/10/15 10:53:55;;;;;;;1.60;1.33;;;;;;;;;;4947380;28;20305;-81
2023/10/15 10:56:47;;;;;;;1.67;1.23;;;;;;;;;;4971193;28;20222;-80
2023/10/15 10:59:15;;;;;;;2.43;1.97;;;;;;;;;;4946526;28;20310;-81
2023/10/15 11:01:45;;;;;;;1.93;1.30;;;;;;;;;;4926869;28;20250;-81
2023/10/15 11:04:11;;;;;;;3.23;1.10;;;;;;;;;;4930368;28;20227;-81
2023/10/15 11:06:42;;;;;;;1.70;1.17;;;;;;;;;;4947171;28;20589;-79
2023/10/15 11:09:20;;;;;;;1.53;1.00;;;;;;;;;;4948752;28;20226;-81
2023/10/15 11:11:46;;;;;;;1.90;1.00;;;;;;;;;;4948580;28;20241;-81
2023/10/15 11:14:12;;;;;;;2.27;0.93;;;;;;;;;;4943267;28;20226;-80
2023/10/15 11:16:45;;;;;;;1.53;1.00;;;;;;;;;;4948720;28;20230;-82
2023/10/15 11:19:23;;;;;;;9.63;1.10;;;;;;;;;;4941401;28;20778;-81
2023/10/15 11:21:52;;;;;;;1.47;0.83;;;;;;;;;;4934903;28;20229;-80
2023/10/15 11:24:20;;;;;;;2.67;2.40;;;;;;;;;;4960909;28;20234;-78
2023/10/15 11:26:46;;;;;;;3.60;0.80;;;;;;;;;;4947085;28;20237;-80
2023/10/15 11:29:16;;;;;;;1.27;0.83;;;;;;;;;;4946836;28;20237;-80
2023/10/15 11:31:46;;;;;;;1.07;0.80;;;;;;;;;;4934555;28;20233;-79
2023/10/15 11:34:22;;;;;;;1.37;0.70;;;;;;;;;;4930762;28;20227;-79
2023/10/15 11:36:50;;;;;;;1.07;0.80;;;;;;;;;;4959400;28;20241;-79
2023/10/15 11:39:25;;;;;;;1.37;0.70;;;;;;;;;;4943380;28;20241;-81
2023/10/15 11:41:57;;;;;;;0.77;0.57;;;;;;;;;;4951277;28;20232;-80
2023/10/15 11:44:31;;;;;;;0.87;0.57;;;;;;;;;;4971960;28;21036;-79
2023/10/15 11:47:00;;;;;;;0.70;0.63;;;;;;;;;;4946621;28;20280;-81
2023/10/15 11:49:26;;;;;;;1.17;0.80;;;;;;;;;;4930483;28;21055;-80
2023/10/15 11:51:55;;;;;;;2.47;1.10;;;;;;;;;;4933153;28;20241;-80
2023/10/15 11:54:30;;;;;;;0.97;0.77;;;;;;;;;;4955898;28;20299;-78
2023/10/15 11:56:56;;;;;;;2.17;1.00;;;;;;;;;;4941615;28;20232;-80
2023/10/15 11:59:22;;;;;;;2.40;0.90;;;;;;;;;;4931290;28;20218;-81
2023/10/15 12:01:51;;;;;;;0.80;0.77;;;;;;;;;;4945283;28;20225;-77
2023/10/15 12:04:19;;;;;;;1.73;0.90;;;;;;;;;;4958413;28;20249;-79
2023/10/15 12:06:46;;;;;;;4.67;0.80;;;;;;;;;;4934039;28;20235;-79
2023/10/15 12:09:24;;;;;;;1.37;0.70;;;;;;;;;;4923969;28;20227;-78
2023/10/15 12:11:53;;;;;;;2.00;0.80;;;;;;;;;;4927969;28;20226;-80
2023/10/15 12:14:19;;;;;;;1.23;1.03;;;;;;;;;;4933671;28;20226;-81
2023/10/15 12:16:44;;;;;;;2.00;1.40;;;;;;;;;;4950640;28;20313;-80
2023/10/15 12:19:12;;;;;;;1.60;1.10;;;;;;;;;;4955426;28;20679;-80
2023/10/15 12:21:38;;;;;;;1.20;1.10;;;;;;;;;;4948687;28;20228;-79
2023/10/15 12:24:04;;;;;;;5.43;1.10;;;;;;;;;;4937095;28;20484;-79
2023/10/15 12:26:33;;;;;;;2.70;1.77;;;;;;;;;;4958254;28;20222;-79
2023/10/15 12:28:59;;;;;;;4.40;1.27;;;;;;;;;;4946005;28;20757;-78
2023/10/15 12:31:26;;;;;;;2.50;1.37;;;;;;;;;;4956548;28;20226;-79
2023/10/15 12:33:56;;;;;;;1.83;1.17;;;;;;;;;;4931397;28;20242;-79
2023/10/15 12:36:23;;;;;;;5.73;2.20;;;;;;;;;;4968727;28;20258;-78
2023/10/15 12:38:49;;;;;;;5.67;2.13;;;;;;;;;;4940630;28;20229;-79
2023/10/15 12:41:21;;;;;;;2.73;1.70;;;;;;;;;;4957350;28;20237;-78
2023/10/15 12:43:48;;;;;;;1.20;0.90;;;;;;;;;;4942296;28;20321;-78
2023/10/15 12:46:18;;;;;;;1.27;0.80;;;;;;;;;;4941490;28;20232;-78
2023/10/15 12:48:44;;;;;;;1.03;0.80;;;;;;;;;;4944855;28;20237;-78
2023/10/15 12:51:10;;;;;;;0.73;0.73;;;;;;;;;;4942356;28;20250;-79
2023/10/15 12:53:36;;;;;;;1.67;1.00;;;;;;;;;;4956449;28;20290;-79
2023/10/15 12:56:03;;;;;;;1.83;0.80;;;;;;;;;;4937722;28;20226;-78
2023/10/15 12:58:31;;;;;;;1.73;0.87;;;;;;;;;;4947872;28;20305;-79
2023/10/15 13:00:58;;;;;;;6.47;5.87;;;;;;;;;;4942709;28;20628;-79
2023/10/15 13:03:25;;;;;;;6.03;4.07;;;;;;;;;;4942219;28;20382;-79
2023/10/15 13:05:50;;;;;;;3.77;2.73;;;;;;;;;;4949514;28;20231;-78
2023/10/15 13:08:18;;;;;;;2.07;1.20;;;;;;;;;;4942618;28;20253;-78
2023/10/15 13:10:44;;;;;;;3.77;1.17;;;;;;;;;;4960100;28;20233;-79
2023/10/15 13:13:09;;;;;;;2.73;1.60;;;;;;;;;;4961767;28;20728;-78
2023/10/15 13:15:37;;;;;;;3.10;1.10;;;;;;;;;;4973270;28;20232;-78
2023/10/15 13:18:03;;;;;;;1.87;0.87;;;;;;;;;;4948473;28;20290;-80
2023/10/15 13:20:28;;;;;;;1.90;1.33;;;;;;;;;;4977195;28;20245;-79
2023/10/15 13:22:59;;;;;;;1.97;1.10;;;;;;;;;;4963881;28;20229;-79
2023/10/15 13:25:25;;;;;;;2.20;1.03;;;;;;;;;;4983990;28;20229;-80
2023/10/15 13:27:50;;;;;;;4.83;1.13;;;;;;;;;;4958541;28;20225;-79
2023/10/15 13:30:16;;;;;;;1.73;1.10;;;;;;;;;;4964027;28;20217;-79
2023/10/15 13:32:46;;;;;;;3.70;1.63;;;;;;;;;;4934556;28;20230;-78
2023/10/15 13:35:11;;;;;;;6.03;1.23;;;;;;;;;;4981831;28;20668;-79
2023/10/15 13:37:40;;;;;;;3.13;1.03;;;;;;;;;;4967455;28;20233;-79
2023/10/15 13:40:10;;;;;;;1.83;1.30;;;;;;;;;;4972804;28;20269;-79
2023/10/15 13:42:39;;;;;;;2.07;1.00;;;;;;;;;;4964147;28;20300;-80
2023/10/15 13:45:05;;;;;;;4.10;2.10;;;;;;;;;;4973729;28;20222;-79
2023/10/15 13:47:36;;;;;;;10.80;9.67;;;;;;;;;;4945151;28;20240;-80
2023/10/15 13:50:06;;;;;;;6.07;1.27;;;;;;;;;;4960278;28;20285;-79
2023/10/15 13:52:44;;;;;;;4.40;1.37;;;;;;;;;;4957475;28;20223;-82
2023/10/15 13:55:11;;;;;;;1.33;0.80;;;;;;;;;;4964760;28;20221;-79
2023/10/15 13:57:37;;;;;;;3.90;1.17;;;;;;;;;;4987896;28;20228;-79
2023/10/15 14:00:11;;;;;;;1.30;0.77;;;;;;;;;;4971557;28;20276;-79
2023/10/15 14:02:46;;;;;;;7.10;2.53;;;;;;;;;;4985186;28;20290;-79
2023/10/15 14:05:18;;;;;;;3.00;0.80;;;;;;;;;;4956413;28;20230;-78
2023/10/15 14:07:47;;;;;;;2.47;1.17;;;;;;;;;;4954492;28;20214;-78
2023/10/15 14:10:15;;;;;;;2.23;1.60;;;;;;;;;;4956689;28;20222;-78
2023/10/15 14:12:41;;;;;;;3.53;0.80;;;;;;;;;;4972009;28;20233;-82
2023/10/15 14:15:10;;;;;;;1.53;0.80;;;;;;;;;;4945959;28;20305;-81
2023/10/15 14:17:40;;;;;;;0.93;0.70;;;;;;;;;;4953120;28;20225;-81
2023/10/15 14:20:14;;;;;;;3.07;1.03;;;;;;;;;;4960546;28;20304;-80
2023/10/15 14:22:41;;;;;;;3.20;1.10;;;;;;;;;;4978642;28;20236;-83
2023/10/15 14:25:09;;;;;;;1.83;0.63;;;;;;;;;;4943945;28;20589;-80
2023/10/15 14:27:34;;;;;;;2.20;1.17;;;;;;;;;;4957828;28;20230;-81
2023/10/15 14:30:03;;;;;;;12.00;1.37;;;;;;;;;;4942889;28;20242;-82
2023/10/15 14:32:30;;;;;;;2.70;1.30;;;;;;;;;;4948483;28;20272;-81
2023/10/15 14:34:59;;;;;;;3.30;1.30;;;;;;;;;;4950337;28;20242;-81
2023/10/15 14:37:25;;;;;;;4.73;2.10;;;;;;;;;;4952037;28;20222;-81
2023/10/15 14:39:51;;;;;;;5.53;2.07;;;;;;;;;;4975966;28;20285;-81
2023/10/15 14:42:18;;;;;;;4.47;3.47;;;;;;;;;;4970399;28;20251;-80
2023/10/15 14:44:46;;;;;;;4.23;1.20;;;;;;;;;;4976796;28;20229;-81
2023/10/15 14:47:12;;;;;;;3.53;1.90;;;;;;;;;;4944376;28;20819;-81
2023/10/15 14:49:39;;;;;;;5.90;2.83;;;;;;;;;;4955059;28;20234;-81
2023/10/15 14:52:05;;;;;;;2.43;1.53;;;;;;;;;;4951611;28;20241;-81
2023/10/15 14:54:31;;;;;;;2.63;1.20;;;;;;;;;;4966796;28;20234;-80
2023/10/15 14:57:00;;;;;;;2.63;1.70;;;;;;;;;;4976661;28;20364;-80
2023/10/15 14:59:26;;;;;;;4.73;2.10;;;;;;;;;;4945186;28;20226;-81
2023/10/15 15:01:52;;;;;;;3.90;2.73;;;;;;;;;;4956628;28;20328;-81
2023/10/15 15:04:24;;;;;;;4.83;2.17;;;;;;;;;;4940101;28;20222;-81
2023/10/15 15:06:50;;;;;;;4.07;2.20;;;;;;;;;;4953458;28;20684;-80
2023/10/15 15:09:22;;;;;;;4.77;4.13;;;;;;;;;;4972997;28;20222;-82
2023/10/15 15:11:49;;;;;;;4.03;1.70;;;;;;;;;;4956857;28;20248;-80
2023/10/15 15:14:15;;;;;;;4.93;3.33;;;;;;;;;;4939285;28;20217;-80
2023/10/15 15:16:40;;;;;;;2.83;1.90;;;;;;;;;;4971902;28;20229;-79
2023/10/15 15:19:12;;;;;;;1.90;1.50;;;;;;;;;;4969958;28;20297;-81
2023/10/15 15:21:38;;;;;;;2.30;1.50;;;;;;;;;;4932415;28;20289;-79
2023/10/15 15:24:05;;;;;;;2.53;1.80;;;;;;;;;;4970098;28;20234;-80
2023/10/15 15:26:31;;;;;;;4.93;3.53;;;;;;;;;;4933343;28;20249;-81
2023/10/15 15:28:56;;;;;;;4.10;2.60;;;;;;;;;;4939475;28;20232;-81
2023/10/15 15:31:22;;;;;;;6.37;2.77;;;;;;;;;;4939166;28;20233;-81